Dana, Kentucky
Current Conditions -  °F | °C
As of 11:15 AM on Sunday 25 Jan 2015 (Local Time) from KPBX Reporting Station
Clear Clear  
Wind Chill: 36°   Ceiling: Unl
Heat Index: 40°   Visibility: 10mi
Dew Point: 31°   Wind: 5mph
Humidity: 72%   Direction: 170°S
Pressure: 29.8"   Gusts: NA
Location:  37.56°N, 82.69°W
Report Text: KPBX 251615Z AUTO 17004KT 10SM CLR 04/00 A2980 RMK AO2 T00421005
Loading
Personal Weather Stations






























Interactive Weather Map New forecast layout! Learn more

10-Day Weather Forecast

Advertisements
Track Severe Weather on mobile